الصفحة الرئيسية
METAR-TAF:

METAR-TAF

مطار :

Pointe-Noire, كونغو

مطار بوانت نوار

دائرة عرض: 04-49S, خط طول: 011-54E, ارتفاع: 17 متر

مراقبة الطقس الحالي

تاريخ ووقت الإصدار 20 دقيقة قبل الساعة 16:00UTC
ريح 2 عقدة من الشرق
درجة الحرارة 26°درجة مئوية
الرطوبة 84%
ضغط 1009 hPa
الرؤية 10 كم أو أكثر
غيوم قليلة على ارتفاع 1200 قدم
غيوم متفرقة على ارتفاع 2300 قدم

METAR: FCPP 251600Z 09002KT 9999 FEW012 SCT023 26/23 Q1009 NOSIG

زمن: 17:20 (16:20 UTC)

توقعات

تاريخ ووقت الإصدار 5ساعات و 20 دقيقة قبل الساعة 11:00UTC
التوقعات صالحة من25 الساعة 12 UTC إلى 26 الساعة 12 UTC
ريح 4 عقدة من الجنوب الغربي
الرؤية: 8000 متر
غيوم متفرقة على ارتفاع 1600 قدم

TAF: FCPP 251100Z 2512/2612 22004KT 8000 SCT016

أرصاد الطقس والتوقعات من أكثر من 4000 مطار (تقارير الطقس للمطار METAR والتنبؤ بالطقس بالمطارTAF).

المحطات المتاحة هي النقط الصفراء والحمراء على الخريطة.

حرك المؤشر فوق النقطة لمعرفة اسم المحطة.

ثم انقر لمعرفة أرصاد وتوقعات الطقس.

لتغيير الخارطة: اضغط على الأزرار الخضراء مع رمز الصليب الأسود للتكبير. على الزر الأخضر مع شرطة للتصغير، أو على الأسهم الخضراء للخرائط المجاورة.


METAR-TAF: